sensor_id;sensor_type;location;lat;lon;timestamp;P1;durP1;ratioP1;P2;durP2;ratioP2
7835;SDS011;3963;42.658;23.298;2023-06-22T00:01:21;12.43;;;8.10;;
7835;SDS011;3963;42.658;23.298;2023-06-22T00:03:48;11.73;;;8.57;;
7835;SDS011;3963;42.658;23.298;2023-06-22T00:06:15;12.77;;;8.20;;
7835;SDS011;3963;42.658;23.298;2023-06-22T00:08:42;12.97;;;8.10;;
7835;SDS011;3963;42.658;23.298;2023-06-22T00:11:11;10.23;;;7.80;;
7835;SDS011;3963;42.658;23.298;2023-06-22T00:13:38;9.90;;;8.10;;
7835;SDS011;3963;42.658;23.298;2023-06-22T00:16:05;9.37;;;7.53;;
7835;SDS011;3963;42.658;23.298;2023-06-22T00:18:32;13.80;;;8.40;;
7835;SDS011;3963;42.658;23.298;2023-06-22T00:21:00;10.67;;;7.67;;
7835;SDS011;3963;42.658;23.298;2023-06-22T00:23:27;9.10;;;7.90;;
7835;SDS011;3963;42.658;23.298;2023-06-22T00:25:59;12.17;;;7.87;;
7835;SDS011;3963;42.658;23.298;2023-06-22T00:28:27;11.97;;;8.23;;
7835;SDS011;3963;42.658;23.298;2023-06-22T00:30:54;10.20;;;7.23;;
7835;SDS011;3963;42.658;23.298;2023-06-22T00:33:22;13.27;;;8.27;;
7835;SDS011;3963;42.658;23.298;2023-06-22T00:35:49;11.87;;;8.80;;
7835;SDS011;3963;42.658;23.298;2023-06-22T00:38:17;7.93;;;7.10;;
7835;SDS011;3963;42.658;23.298;2023-06-22T00:40:44;9.10;;;7.47;;
7835;SDS011;3963;42.658;23.298;2023-06-22T00:43:11;11.30;;;7.60;;
7835;SDS011;3963;42.658;23.298;2023-06-22T00:45:40;10.80;;;7.77;;
7835;SDS011;3963;42.658;23.298;2023-06-22T00:48:07;9.60;;;7.87;;
7835;SDS011;3963;42.658;23.298;2023-06-22T00:50:34;12.23;;;7.90;;
7835;SDS011;3963;42.658;23.298;2023-06-22T00:53:03;8.33;;;7.40;;
7835;SDS011;3963;42.658;23.298;2023-06-22T00:55:33;10.50;;;7.27;;
7835;SDS011;3963;42.658;23.298;2023-06-22T00:58:03;8.67;;;7.77;;
7835;SDS011;3963;42.658;23.298;2023-06-22T01:00:33;11.23;;;8.60;;
7835;SDS011;3963;42.658;23.298;2023-06-22T01:03:01;8.93;;;7.30;;
7835;SDS011;3963;42.658;23.298;2023-06-22T01:05:29;11.33;;;7.70;;
7835;SDS011;3963;42.658;23.298;2023-06-22T01:10:53;11.47;;;8.60;;
7835;SDS011;3963;42.658;23.298;2023-06-22T01:13:26;12.80;;;8.50;;
7835;SDS011;3963;42.658;23.298;2023-06-22T01:16:00;10.63;;;7.90;;
7835;SDS011;3963;42.658;23.298;2023-06-22T01:18:31;14.57;;;8.37;;
7835;SDS011;3963;42.658;23.298;2023-06-22T01:21:01;12.50;;;8.23;;
7835;SDS011;3963;42.658;23.298;2023-06-22T01:23:46;12.17;;;8.10;;
7835;SDS011;3963;42.658;23.298;2023-06-22T01:26:22;12.40;;;8.07;;
7835;SDS011;3963;42.658;23.298;2023-06-22T01:28:57;12.87;;;8.23;;
7835;SDS011;3963;42.658;23.298;2023-06-22T01:31:26;14.57;;;8.33;;
7835;SDS011;3963;42.658;23.298;2023-06-22T01:33:57;15.17;;;7.60;;
7835;SDS011;3963;42.658;23.298;2023-06-22T01:36:26;12.87;;;8.03;;
7835;SDS011;3963;42.658;23.298;2023-06-22T01:38:54;10.10;;;7.77;;
7835;SDS011;3963;42.658;23.298;2023-06-22T01:41:24;10.53;;;7.87;;
7835;SDS011;3963;42.658;23.298;2023-06-22T01:43:52;9.40;;;7.57;;
7835;SDS011;3963;42.658;23.298;2023-06-22T01:46:21;10.27;;;7.53;;
7835;SDS011;3963;42.658;23.298;2023-06-22T01:48:50;9.90;;;8.33;;
7835;SDS011;3963;42.658;23.298;2023-06-22T01:51:18;13.37;;;9.23;;
7835;SDS011;3963;42.658;23.298;2023-06-22T01:53:45;12.30;;;8.50;;
7835;SDS011;3963;42.658;23.298;2023-06-22T01:56:13;13.37;;;9.17;;
7835;SDS011;3963;42.658;23.298;2023-06-22T01:58:45;11.40;;;8.50;;
7835;SDS011;3963;42.658;23.298;2023-06-22T02:01:20;11.33;;;8.20;;
7835;SDS011;3963;42.658;23.298;2023-06-22T02:03:52;10.43;;;8.63;;
7835;SDS011;3963;42.658;23.298;2023-06-22T02:06:29;10.00;;;8.13;;
7835;SDS011;3963;42.658;23.298;2023-06-22T02:09:02;12.03;;;8.33;;
7835;SDS011;3963;42.658;23.298;2023-06-22T02:11:35;11.63;;;8.60;;
7835;SDS011;3963;42.658;23.298;2023-06-22T02:14:04;11.50;;;8.27;;
7835;SDS011;3963;42.658;23.298;2023-06-22T02:16:34;14.03;;;8.70;;
7835;SDS011;3963;42.658;23.298;2023-06-22T02:19:03;11.73;;;8.07;;
7835;SDS011;3963;42.658;23.298;2023-06-22T02:21:31;12.07;;;7.90;;
7835;SDS011;3963;42.658;23.298;2023-06-22T02:23:58;12.93;;;8.90;;
7835;SDS011;3963;42.658;23.298;2023-06-22T02:26:25;13.73;;;8.73;;
7835;SDS011;3963;42.658;23.298;2023-06-22T02:28:53;11.83;;;8.73;;
7835;SDS011;3963;42.658;23.298;2023-06-22T02:31:20;11.13;;;8.43;;
7835;SDS011;3963;42.658;23.298;2023-06-22T02:33:48;14.23;;;9.10;;
7835;SDS011;3963;42.658;23.298;2023-06-22T02:36:15;13.17;;;8.43;;
7835;SDS011;3963;42.658;23.298;2023-06-22T02:38:49;12.50;;;9.27;;
7835;SDS011;3963;42.658;23.298;2023-06-22T02:41:16;15.07;;;9.17;;
7835;SDS011;3963;42.658;23.298;2023-06-22T02:43:44;13.70;;;9.33;;
7835;SDS011;3963;42.658;23.298;2023-06-22T02:46:11;10.87;;;8.37;;
7835;SDS011;3963;42.658;23.298;2023-06-22T02:48:39;13.80;;;9.40;;
7835;SDS011;3963;42.658;23.298;2023-06-22T02:51:07;11.47;;;8.40;;
7835;SDS011;3963;42.658;23.298;2023-06-22T02:53:34;10.30;;;8.07;;
7835;SDS011;3963;42.658;23.298;2023-06-22T02:56:01;14.13;;;9.17;;
7835;SDS011;3963;42.658;23.298;2023-06-22T02:58:30;12.93;;;8.63;;
7835;SDS011;3963;42.658;23.298;2023-06-22T03:00:58;13.23;;;9.40;;
7835;SDS011;3963;42.658;23.298;2023-06-22T03:03:29;12.73;;;8.67;;
7835;SDS011;3963;42.658;23.298;2023-06-22T03:05:56;15.10;;;9.60;;
7835;SDS011;3963;42.658;23.298;2023-06-22T03:08:24;12.57;;;9.73;;
7835;SDS011;3963;42.658;23.298;2023-06-22T03:10:51;12.73;;;9.10;;
7835;SDS011;3963;42.658;23.298;2023-06-22T03:13:19;13.00;;;9.40;;
7835;SDS011;3963;42.658;23.298;2023-06-22T03:15:46;14.40;;;9.93;;
7835;SDS011;3963;42.658;23.298;2023-06-22T03:18:13;12.70;;;9.40;;
7835;SDS011;3963;42.658;23.298;2023-06-22T03:20:40;10.57;;;8.57;;
7835;SDS011;3963;42.658;23.298;2023-06-22T03:23:07;11.57;;;9.03;;
7835;SDS011;3963;42.658;23.298;2023-06-22T03:25:36;11.87;;;8.83;;
7835;SDS011;3963;42.658;23.298;2023-06-22T03:28:03;13.43;;;9.77;;
7835;SDS011;3963;42.658;23.298;2023-06-22T03:30:30;12.10;;;9.60;;
7835;SDS011;3963;42.658;23.298;2023-06-22T03:32:56;23.47;;;9.87;;
7835;SDS011;3963;42.658;23.298;2023-06-22T03:35:23;13.47;;;9.07;;
7835;SDS011;3963;42.658;23.298;2023-06-22T03:37:50;15.23;;;8.70;;
7835;SDS011;3963;42.658;23.298;2023-06-22T03:40:16;17.17;;;10.97;;
7835;SDS011;3963;42.658;23.298;2023-06-22T03:42:45;12.93;;;8.70;;
7835;SDS011;3963;42.658;23.298;2023-06-22T03:45:12;18.70;;;9.67;;
7835;SDS011;3963;42.658;23.298;2023-06-22T03:47:38;22.30;;;12.27;;
7835;SDS011;3963;42.658;23.298;2023-06-22T03:50:05;14.37;;;9.97;;
7835;SDS011;3963;42.658;23.298;2023-06-22T03:52:33;15.57;;;9.90;;
7835;SDS011;3963;42.658;23.298;2023-06-22T03:54:59;17.50;;;9.63;;
7835;SDS011;3963;42.658;23.298;2023-06-22T03:57:26;15.80;;;9.73;;
7835;SDS011;3963;42.658;23.298;2023-06-22T03:59:56;14.37;;;10.60;;
7835;SDS011;3963;42.658;23.298;2023-06-22T04:02:23;14.83;;;10.33;;
7835;SDS011;3963;42.658;23.298;2023-06-22T04:04:50;17.10;;;10.67;;
7835;SDS011;3963;42.658;23.298;2023-06-22T04:07:17;16.37;;;10.37;;
7835;SDS011;3963;42.658;23.298;2023-06-22T04:09:44;19.83;;;10.97;;
7835;SDS011;3963;42.658;23.298;2023-06-22T04:12:11;16.57;;;10.30;;
7835;SDS011;3963;42.658;23.298;2023-06-22T04:14:37;22.83;;;10.97;;
7835;SDS011;3963;42.658;23.298;2023-06-22T04:17:06;18.10;;;12.03;;
7835;SDS011;3963;42.658;23.298;2023-06-22T04:19:33;15.07;;;11.33;;
7835;SDS011;3963;42.658;23.298;2023-06-22T04:22:00;15.40;;;10.83;;
7835;SDS011;3963;42.658;23.298;2023-06-22T04:24:27;13.60;;;10.97;;
7835;SDS011;3963;42.658;23.298;2023-06-22T04:26:53;17.73;;;12.03;;
7835;SDS011;3963;42.658;23.298;2023-06-22T04:29:21;17.83;;;12.53;;
7835;SDS011;3963;42.658;23.298;2023-06-22T04:31:55;19.33;;;11.90;;
7835;SDS011;3963;42.658;23.298;2023-06-22T04:34:24;18.13;;;13.07;;
7835;SDS011;3963;42.658;23.298;2023-06-22T04:36:53;15.70;;;12.07;;
7835;SDS011;3963;42.658;23.298;2023-06-22T04:39:20;17.60;;;12.37;;
7835;SDS011;3963;42.658;23.298;2023-06-22T04:41:48;22.57;;;13.23;;
7835;SDS011;3963;42.658;23.298;2023-06-22T04:44:17;20.53;;;13.63;;
7835;SDS011;3963;42.658;23.298;2023-06-22T04:46:49;20.00;;;12.70;;
7835;SDS011;3963;42.658;23.298;2023-06-22T04:49:18;18.47;;;12.13;;
7835;SDS011;3963;42.658;23.298;2023-06-22T04:51:47;16.33;;;13.00;;
7835;SDS011;3963;42.658;23.298;2023-06-22T04:54:16;21.40;;;12.67;;
7835;SDS011;3963;42.658;23.298;2023-06-22T04:56:43;18.43;;;13.53;;
7835;SDS011;3963;42.658;23.298;2023-06-22T04:59:11;19.33;;;12.97;;
7835;SDS011;3963;42.658;23.298;2023-06-22T05:01:38;18.90;;;12.50;;
7835;SDS011;3963;42.658;23.298;2023-06-22T05:04:05;21.37;;;12.30;;
7835;SDS011;3963;42.658;23.298;2023-06-22T05:06:31;20.33;;;13.53;;
7835;SDS011;3963;42.658;23.298;2023-06-22T05:09:00;23.03;;;14.33;;
7835;SDS011;3963;42.658;23.298;2023-06-22T05:11:28;21.53;;;13.83;;
7835;SDS011;3963;42.658;23.298;2023-06-22T05:13:55;18.10;;;13.70;;
7835;SDS011;3963;42.658;23.298;2023-06-22T05:16:22;17.90;;;13.87;;
7835;SDS011;3963;42.658;23.298;2023-06-22T05:18:51;16.10;;;13.10;;
7835;SDS011;3963;42.658;23.298;2023-06-22T05:21:21;25.30;;;14.20;;
7835;SDS011;3963;42.658;23.298;2023-06-22T05:23:49;21.97;;;14.27;;
7835;SDS011;3963;42.658;23.298;2023-06-22T05:26:17;21.90;;;13.70;;
7835;SDS011;3963;42.658;23.298;2023-06-22T05:28:45;18.37;;;14.13;;
7835;SDS011;3963;42.658;23.298;2023-06-22T05:31:13;18.77;;;13.63;;
7835;SDS011;3963;42.658;23.298;2023-06-22T05:33:40;22.13;;;13.53;;
7835;SDS011;3963;42.658;23.298;2023-06-22T05:36:07;17.63;;;14.40;;
7835;SDS011;3963;42.658;23.298;2023-06-22T05:38:34;18.57;;;13.00;;
7835;SDS011;3963;42.658;23.298;2023-06-22T05:41:00;24.07;;;13.43;;
7835;SDS011;3963;42.658;23.298;2023-06-22T05:43:29;20.07;;;12.93;;
7835;SDS011;3963;42.658;23.298;2023-06-22T05:45:56;15.60;;;12.63;;
7835;SDS011;3963;42.658;23.298;2023-06-22T05:48:23;18.17;;;12.47;;
7835;SDS011;3963;42.658;23.298;2023-06-22T05:50:50;16.63;;;12.63;;
7835;SDS011;3963;42.658;23.298;2023-06-22T05:53:17;17.03;;;13.03;;
7835;SDS011;3963;42.658;23.298;2023-06-22T05:55:43;17.10;;;12.67;;
7835;SDS011;3963;42.658;23.298;2023-06-22T05:58:10;17.80;;;12.33;;
7835;SDS011;3963;42.658;23.298;2023-06-22T06:00:39;18.87;;;13.23;;
7835;SDS011;3963;42.658;23.298;2023-06-22T06:03:07;16.73;;;12.30;;
7835;SDS011;3963;42.658;23.298;2023-06-22T06:05:34;16.97;;;12.43;;
7835;SDS011;3963;42.658;23.298;2023-06-22T06:08:01;18.47;;;12.13;;
7835;SDS011;3963;42.658;23.298;2023-06-22T06:10:30;16.07;;;12.77;;
7835;SDS011;3963;42.658;23.298;2023-06-22T06:12:57;16.23;;;12.90;;
7835;SDS011;3963;42.658;23.298;2023-06-22T06:15:24;19.97;;;12.17;;
7835;SDS011;3963;42.658;23.298;2023-06-22T06:17:52;16.83;;;12.07;;
7835;SDS011;3963;42.658;23.298;2023-06-22T06:20:20;17.63;;;12.67;;
7835;SDS011;3963;42.658;23.298;2023-06-22T06:22:48;17.60;;;12.87;;
7835;SDS011;3963;42.658;23.298;2023-06-22T06:25:16;15.40;;;12.43;;
7835;SDS011;3963;42.658;23.298;2023-06-22T06:27:45;16.83;;;11.83;;
7835;SDS011;3963;42.658;23.298;2023-06-22T06:30:13;21.03;;;12.70;;
7835;SDS011;3963;42.658;23.298;2023-06-22T06:32:41;15.03;;;11.77;;
7835;SDS011;3963;42.658;23.298;2023-06-22T06:35:09;15.73;;;12.47;;
7835;SDS011;3963;42.658;23.298;2023-06-22T06:37:36;14.33;;;11.93;;
7835;SDS011;3963;42.658;23.298;2023-06-22T06:40:05;17.23;;;11.00;;
7835;SDS011;3963;42.658;23.298;2023-06-22T06:42:33;14.33;;;10.70;;
7835;SDS011;3963;42.658;23.298;2023-06-22T06:45:01;16.60;;;12.30;;
7835;SDS011;3963;42.658;23.298;2023-06-22T06:47:27;15.87;;;11.80;;
7835;SDS011;3963;42.658;23.298;2023-06-22T06:49:54;15.90;;;10.43;;
7835;SDS011;3963;42.658;23.298;2023-06-22T06:52:22;15.50;;;10.73;;
7835;SDS011;3963;42.658;23.298;2023-06-22T06:54:49;14.47;;;10.43;;
7835;SDS011;3963;42.658;23.298;2023-06-22T06:57:17;17.33;;;11.53;;
7835;SDS011;3963;42.658;23.298;2023-06-22T06:59:43;13.67;;;11.27;;
7835;SDS011;3963;42.658;23.298;2023-06-22T07:02:10;14.20;;;11.17;;
7835;SDS011;3963;42.658;23.298;2023-06-22T07:04:37;13.13;;;10.73;;
7835;SDS011;3963;42.658;23.298;2023-06-22T07:07:04;15.03;;;10.50;;
7835;SDS011;3963;42.658;23.298;2023-06-22T07:09:32;15.43;;;11.07;;
7835;SDS011;3963;42.658;23.298;2023-06-22T07:11:59;13.48;;;11.15;;
7835;SDS011;3963;42.658;23.298;2023-06-22T07:14:26;13.77;;;10.73;;
7835;SDS011;3963;42.658;23.298;2023-06-22T07:16:52;12.55;;;10.05;;
7835;SDS011;3963;42.658;23.298;2023-06-22T07:19:23;15.18;;;10.15;;
7835;SDS011;3963;42.658;23.298;2023-06-22T07:21:51;16.88;;;10.60;;
7835;SDS011;3963;42.658;23.298;2023-06-22T07:24:18;12.82;;;10.18;;
7835;SDS011;3963;42.658;23.298;2023-06-22T07:26:47;16.17;;;10.23;;
7835;SDS011;3963;42.658;23.298;2023-06-22T07:29:15;12.05;;;10.75;;
7835;SDS011;3963;42.658;23.298;2023-06-22T07:31:42;14.07;;;10.48;;
7835;SDS011;3963;42.658;23.298;2023-06-22T07:34:09;15.73;;;12.18;;
7835;SDS011;3963;42.658;23.298;2023-06-22T07:36:35;13.13;;;10.50;;
7835;SDS011;3963;42.658;23.298;2023-06-22T07:39:02;16.13;;;10.43;;
7835;SDS011;3963;42.658;23.298;2023-06-22T07:41:30;11.75;;;9.57;;
7835;SDS011;3963;42.658;23.298;2023-06-22T07:43:58;13.25;;;9.88;;
7835;SDS011;3963;42.658;23.298;2023-06-22T07:46:25;11.32;;;9.25;;
7835;SDS011;3963;42.658;23.298;2023-06-22T07:48:52;11.60;;;9.40;;
7835;SDS011;3963;42.658;23.298;2023-06-22T07:51:19;13.63;;;11.05;;
7835;SDS011;3963;42.658;23.298;2023-06-22T07:53:45;12.32;;;10.32;;
7835;SDS011;3963;42.658;23.298;2023-06-22T07:56:12;14.43;;;10.73;;
7835;SDS011;3963;42.658;23.298;2023-06-22T07:58:44;12.18;;;10.25;;
7835;SDS011;3963;42.658;23.298;2023-06-22T08:01:12;14.25;;;11.30;;
7835;SDS011;3963;42.658;23.298;2023-06-22T08:03:39;15.30;;;11.68;;
7835;SDS011;3963;42.658;23.298;2023-06-22T08:06:05;14.48;;;11.18;;
7835;SDS011;3963;42.658;23.298;2023-06-22T08:08:34;15.88;;;11.52;;
7835;SDS011;3963;42.658;23.298;2023-06-22T08:11:01;17.60;;;10.55;;
7835;SDS011;3963;42.658;23.298;2023-06-22T08:13:28;14.93;;;9.00;;
7835;SDS011;3963;42.658;23.298;2023-06-22T08:15:54;12.00;;;9.60;;
7835;SDS011;3963;42.658;23.298;2023-06-22T08:18:22;15.50;;;10.00;;
7835;SDS011;3963;42.658;23.298;2023-06-22T08:20:49;11.98;;;9.93;;
7835;SDS011;3963;42.658;23.298;2023-06-22T08:23:16;11.32;;;9.65;;
7835;SDS011;3963;42.658;23.298;2023-06-22T08:25:43;13.90;;;10.15;;
7835;SDS011;3963;42.658;23.298;2023-06-22T08:28:10;10.40;;;9.05;;
7835;SDS011;3963;42.658;23.298;2023-06-22T08:30:38;16.10;;;9.88;;
7835;SDS011;3963;42.658;23.298;2023-06-22T08:33:05;12.25;;;10.57;;
7835;SDS011;3963;42.658;23.298;2023-06-22T08:35:33;10.25;;;9.02;;
7835;SDS011;3963;42.658;23.298;2023-06-22T08:37:59;14.55;;;10.18;;
7835;SDS011;3963;42.658;23.298;2023-06-22T08:40:27;12.75;;;9.65;;
7835;SDS011;3963;42.658;23.298;2023-06-22T08:42:54;10.43;;;9.32;;
7835;SDS011;3963;42.658;23.298;2023-06-22T08:45:21;11.55;;;8.88;;
7835;SDS011;3963;42.658;23.298;2023-06-22T08:47:47;11.45;;;9.60;;
7835;SDS011;3963;42.658;23.298;2023-06-22T08:50:14;10.18;;;8.77;;
7835;SDS011;3963;42.658;23.298;2023-06-22T08:52:42;9.63;;;8.32;;
7835;SDS011;3963;42.658;23.298;2023-06-22T08:55:10;13.15;;;9.13;;
7835;SDS011;3963;42.658;23.298;2023-06-22T08:57:37;10.50;;;8.98;;
7835;SDS011;3963;42.658;23.298;2023-06-22T09:00:05;11.85;;;9.02;;
7835;SDS011;3963;42.658;23.298;2023-06-22T09:02:40;10.32;;;9.02;;
7835;SDS011;3963;42.658;23.298;2023-06-22T09:05:07;9.35;;;8.43;;
7835;SDS011;3963;42.658;23.298;2023-06-22T09:07:34;9.80;;;8.13;;
7835;SDS011;3963;42.658;23.298;2023-06-22T09:10:02;9.23;;;7.65;;
7835;SDS011;3963;42.658;23.298;2023-06-22T09:12:30;8.35;;;7.28;;
7835;SDS011;3963;42.658;23.298;2023-06-22T09:14:58;10.23;;;7.38;;
7835;SDS011;3963;42.658;23.298;2023-06-22T09:17:25;9.30;;;7.68;;
7835;SDS011;3963;42.658;23.298;2023-06-22T09:19:52;11.00;;;7.80;;
7835;SDS011;3963;42.658;23.298;2023-06-22T09:22:19;8.13;;;7.40;;
7835;SDS011;3963;42.658;23.298;2023-06-22T09:24:46;11.13;;;7.40;;
7835;SDS011;3963;42.658;23.298;2023-06-22T09:27:14;11.52;;;8.23;;
7835;SDS011;3963;42.658;23.298;2023-06-22T09:29:41;10.60;;;7.53;;
7835;SDS011;3963;42.658;23.298;2023-06-22T09:32:08;9.98;;;7.70;;
7835;SDS011;3963;42.658;23.298;2023-06-22T09:34:35;12.23;;;7.18;;
7835;SDS011;3963;42.658;23.298;2023-06-22T09:37:02;7.80;;;7.00;;
7835;SDS011;3963;42.658;23.298;2023-06-22T09:39:29;8.02;;;7.22;;
7835;SDS011;3963;42.658;23.298;2023-06-22T09:41:57;9.85;;;7.85;;
7835;SDS011;3963;42.658;23.298;2023-06-22T09:44:26;9.57;;;7.53;;
7835;SDS011;3963;42.658;23.298;2023-06-22T09:46:53;8.63;;;7.82;;
7835;SDS011;3963;42.658;23.298;2023-06-22T09:49:20;8.80;;;7.50;;
7835;SDS011;3963;42.658;23.298;2023-06-22T09:51:46;9.60;;;7.72;;
7835;SDS011;3963;42.658;23.298;2023-06-22T09:54:16;9.38;;;7.47;;
7835;SDS011;3963;42.658;23.298;2023-06-22T09:56:42;11.05;;;7.22;;
7835;SDS011;3963;42.658;23.298;2023-06-22T09:59:09;9.88;;;7.88;;
7835;SDS011;3963;42.658;23.298;2023-06-22T10:01:37;10.80;;;7.05;;
7835;SDS011;3963;42.658;23.298;2023-06-22T10:04:04;8.55;;;7.68;;
7835;SDS011;3963;42.658;23.298;2023-06-22T10:06:31;8.50;;;7.47;;
7835;SDS011;3963;42.658;23.298;2023-06-22T10:08:58;9.43;;;7.55;;
7835;SDS011;3963;42.658;23.298;2023-06-22T10:11:24;8.00;;;7.18;;
7835;SDS011;3963;42.658;23.298;2023-06-22T10:13:55;8.43;;;7.60;;
7835;SDS011;3963;42.658;23.298;2023-06-22T10:16:23;8.15;;;7.35;;
7835;SDS011;3963;42.658;23.298;2023-06-22T10:18:53;8.70;;;7.20;;
7835;SDS011;3963;42.658;23.298;2023-06-22T10:21:20;8.98;;;8.07;;
7835;SDS011;3963;42.658;23.298;2023-06-22T10:23:46;9.45;;;7.57;;
7835;SDS011;3963;42.658;23.298;2023-06-22T10:26:13;10.32;;;7.57;;
7835;SDS011;3963;42.658;23.298;2023-06-22T10:28:40;8.93;;;8.02;;
7835;SDS011;3963;42.658;23.298;2023-06-22T10:31:07;9.48;;;7.68;;
7835;SDS011;3963;42.658;23.298;2023-06-22T10:33:34;14.18;;;8.60;;
7835;SDS011;3963;42.658;23.298;2023-06-22T10:36:02;9.45;;;8.50;;
7835;SDS011;3963;42.658;23.298;2023-06-22T10:38:29;22.65;;;13.55;;
7835;SDS011;3963;42.658;23.298;2023-06-22T10:40:56;9.35;;;7.72;;
7835;SDS011;3963;42.658;23.298;2023-06-22T10:43:23;14.55;;;8.55;;
7835;SDS011;3963;42.658;23.298;2023-06-22T10:45:50;8.70;;;7.88;;
7835;SDS011;3963;42.658;23.298;2023-06-22T10:48:16;10.25;;;7.70;;
7835;SDS011;3963;42.658;23.298;2023-06-22T10:50:43;16.67;;;8.30;;
7835;SDS011;3963;42.658;23.298;2023-06-22T10:53:12;9.23;;;7.97;;
7835;SDS011;3963;42.658;23.298;2023-06-22T10:55:38;9.52;;;8.63;;
7835;SDS011;3963;42.658;23.298;2023-06-22T10:58:05;11.52;;;7.93;;
7835;SDS011;3963;42.658;23.298;2023-06-22T11:00:32;20.67;;;9.52;;
7835;SDS011;3963;42.658;23.298;2023-06-22T11:02:58;9.30;;;8.00;;
7835;SDS011;3963;42.658;23.298;2023-06-22T11:05:25;8.25;;;7.45;;
7835;SDS011;3963;42.658;23.298;2023-06-22T11:07:52;9.15;;;8.25;;
7835;SDS011;3963;42.658;23.298;2023-06-22T11:10:21;9.65;;;8.05;;
7835;SDS011;3963;42.658;23.298;2023-06-22T11:12:48;9.38;;;8.23;;
7835;SDS011;3963;42.658;23.298;2023-06-22T11:15:15;9.77;;;8.85;;
7835;SDS011;3963;42.658;23.298;2023-06-22T11:17:41;9.48;;;8.50;;
7835;SDS011;3963;42.658;23.298;2023-06-22T11:20:08;10.60;;;8.00;;
7835;SDS011;3963;42.658;23.298;2023-06-22T11:22:36;12.70;;;8.48;;
7835;SDS011;3963;42.658;23.298;2023-06-22T11:25:04;10.43;;;7.65;;
7835;SDS011;3963;42.658;23.298;2023-06-22T11:27:34;9.52;;;8.32;;
7835;SDS011;3963;42.658;23.298;2023-06-22T11:30:01;8.65;;;7.78;;
7835;SDS011;3963;42.658;23.298;2023-06-22T11:32:28;10.93;;;8.85;;
7835;SDS011;3963;42.658;23.298;2023-06-22T11:34:55;9.82;;;8.32;;
7835;SDS011;3963;42.658;23.298;2023-06-22T11:37:22;10.45;;;8.90;;
7835;SDS011;3963;42.658;23.298;2023-06-22T11:39:49;10.88;;;8.25;;
7835;SDS011;3963;42.658;23.298;2023-06-22T11:42:15;8.82;;;7.93;;
7835;SDS011;3963;42.658;23.298;2023-06-22T11:44:44;10.07;;;8.82;;
7835;SDS011;3963;42.658;23.298;2023-06-22T11:47:10;9.90;;;8.90;;
7835;SDS011;3963;42.658;23.298;2023-06-22T11:49:37;9.52;;;8.60;;
7835;SDS011;3963;42.658;23.298;2023-06-22T11:52:05;9.57;;;8.68;;
7835;SDS011;3963;42.658;23.298;2023-06-22T11:54:32;12.00;;;9.18;;
7835;SDS011;3963;42.658;23.298;2023-06-22T11:56:59;10.50;;;9.05;;
7835;SDS011;3963;42.658;23.298;2023-06-22T11:59:26;11.25;;;9.15;;
7835;SDS011;3963;42.658;23.298;2023-06-22T12:01:54;11.23;;;9.30;;
7835;SDS011;3963;42.658;23.298;2023-06-22T12:04:20;11.85;;;8.77;;
7835;SDS011;3963;42.658;23.298;2023-06-22T12:06:47;10.93;;;9.38;;
7835;SDS011;3963;42.658;23.298;2023-06-22T12:09:14;11.48;;;9.18;;
7835;SDS011;3963;42.658;23.298;2023-06-22T12:11:40;9.93;;;8.82;;
7835;SDS011;3963;42.658;23.298;2023-06-22T12:14:07;13.50;;;8.77;;
7835;SDS011;3963;42.658;23.298;2023-06-22T12:16:34;11.95;;;9.88;;
7835;SDS011;3963;42.658;23.298;2023-06-22T12:19:02;15.98;;;12.13;;
7835;SDS011;3963;42.658;23.298;2023-06-22T12:21:29;14.30;;;9.73;;
7835;SDS011;3963;42.658;23.298;2023-06-22T12:23:56;13.07;;;9.50;;
7835;SDS011;3963;42.658;23.298;2023-06-22T12:26:23;10.73;;;9.63;;
7835;SDS011;3963;42.658;23.298;2023-06-22T12:28:50;18.90;;;11.30;;
7835;SDS011;3963;42.658;23.298;2023-06-22T12:31:17;15.30;;;11.18;;
7835;SDS011;3963;42.658;23.298;2023-06-22T12:33:43;19.35;;;11.27;;
7835;SDS011;3963;42.658;23.298;2023-06-22T12:36:12;14.00;;;8.82;;
7835;SDS011;3963;42.658;23.298;2023-06-22T12:38:38;15.05;;;8.75;;
7835;SDS011;3963;42.658;23.298;2023-06-22T12:41:05;11.30;;;9.90;;
7835;SDS011;3963;42.658;23.298;2023-06-22T12:43:32;15.47;;;10.27;;
7835;SDS011;3963;42.658;23.298;2023-06-22T12:45:59;15.07;;;10.10;;
7835;SDS011;3963;42.658;23.298;2023-06-22T12:48:25;16.30;;;10.00;;
7835;SDS011;3963;42.658;23.298;2023-06-22T12:50:53;12.83;;;9.57;;
7835;SDS011;3963;42.658;23.298;2023-06-22T12:53:21;14.80;;;9.63;;
7835;SDS011;3963;42.658;23.298;2023-06-22T12:55:48;11.90;;;9.57;;
7835;SDS011;3963;42.658;23.298;2023-06-22T12:58:15;10.13;;;8.10;;
7835;SDS011;3963;42.658;23.298;2023-06-22T13:00:42;13.93;;;8.50;;
7835;SDS011;3963;42.658;23.298;2023-06-22T13:03:09;12.03;;;8.53;;
7835;SDS011;3963;42.658;23.298;2023-06-22T13:05:36;13.13;;;9.33;;
7835;SDS011;3963;42.658;23.298;2023-06-22T13:08:03;11.57;;;9.47;;
7835;SDS011;3963;42.658;23.298;2023-06-22T13:10:31;15.60;;;10.47;;
7835;SDS011;3963;42.658;23.298;2023-06-22T13:12:59;15.00;;;9.50;;
7835;SDS011;3963;42.658;23.298;2023-06-22T13:15:27;12.07;;;9.53;;
7835;SDS011;3963;42.658;23.298;2023-06-22T13:17:55;16.33;;;9.73;;
7835;SDS011;3963;42.658;23.298;2023-06-22T13:20:22;16.93;;;9.40;;
7835;SDS011;3963;42.658;23.298;2023-06-22T13:22:49;11.17;;;8.87;;
7835;SDS011;3963;42.658;23.298;2023-06-22T13:25:16;11.47;;;9.40;;
7835;SDS011;3963;42.658;23.298;2023-06-22T13:27:46;12.23;;;9.00;;
7835;SDS011;3963;42.658;23.298;2023-06-22T13:30:13;11.67;;;8.57;;
7835;SDS011;3963;42.658;23.298;2023-06-22T13:32:40;13.40;;;8.43;;
7835;SDS011;3963;42.658;23.298;2023-06-22T13:35:08;11.77;;;9.23;;
7835;SDS011;3963;42.658;23.298;2023-06-22T13:37:35;13.50;;;9.17;;
7835;SDS011;3963;42.658;23.298;2023-06-22T13:40:02;12.17;;;9.27;;
7835;SDS011;3963;42.658;23.298;2023-06-22T13:42:31;10.93;;;8.83;;
7835;SDS011;3963;42.658;23.298;2023-06-22T13:45:00;14.00;;;9.60;;
7835;SDS011;3963;42.658;23.298;2023-06-22T13:47:27;12.87;;;9.90;;
7835;SDS011;3963;42.658;23.298;2023-06-22T13:49:54;13.37;;;10.10;;
7835;SDS011;3963;42.658;23.298;2023-06-22T13:52:20;11.83;;;9.77;;
7835;SDS011;3963;42.658;23.298;2023-06-22T13:54:47;13.80;;;10.07;;
7835;SDS011;3963;42.658;23.298;2023-06-22T13:57:14;13.13;;;9.97;;
7835;SDS011;3963;42.658;23.298;2023-06-22T13:59:41;15.03;;;9.47;;
7835;SDS011;3963;42.658;23.298;2023-06-22T14:02:10;13.87;;;9.27;;
7835;SDS011;3963;42.658;23.298;2023-06-22T14:04:37;12.00;;;7.93;;
7835;SDS011;3963;42.658;23.298;2023-06-22T14:07:04;66.37;;;13.90;;
7835;SDS011;3963;42.658;23.298;2023-06-22T14:09:31;12.77;;;8.00;;
7835;SDS011;3963;42.658;23.298;2023-06-22T14:11:59;15.23;;;7.83;;
7835;SDS011;3963;42.658;23.298;2023-06-22T14:14:29;131.23;;;20.60;;
7835;SDS011;3963;42.658;23.298;2023-06-22T14:16:56;12.67;;;7.60;;
7835;SDS011;3963;42.658;23.298;2023-06-22T14:19:24;8.87;;;7.53;;
7835;SDS011;3963;42.658;23.298;2023-06-22T14:21:51;19.77;;;9.40;;
7835;SDS011;3963;42.658;23.298;2023-06-22T14:24:18;11.97;;;8.53;;
7835;SDS011;3963;42.658;23.298;2023-06-22T14:26:45;13.23;;;7.17;;
7835;SDS011;3963;42.658;23.298;2023-06-22T14:29:11;9.93;;;8.00;;
7835;SDS011;3963;42.658;23.298;2023-06-22T14:31:38;10.63;;;7.97;;
7835;SDS011;3963;42.658;23.298;2023-06-22T14:34:05;17.30;;;8.37;;
7835;SDS011;3963;42.658;23.298;2023-06-22T14:36:33;13.07;;;8.60;;
7835;SDS011;3963;42.658;23.298;2023-06-22T14:39:00;13.17;;;8.07;;
7835;SDS011;3963;42.658;23.298;2023-06-22T14:41:26;15.23;;;9.20;;
7835;SDS011;3963;42.658;23.298;2023-06-22T14:43:53;12.53;;;8.47;;
7835;SDS011;3963;42.658;23.298;2023-06-22T14:46:20;26.13;;;9.70;;
7835;SDS011;3963;42.658;23.298;2023-06-22T14:48:46;32.97;;;10.20;;
7835;SDS011;3963;42.658;23.298;2023-06-22T14:51:14;15.57;;;8.43;;